• Join FlightAware (Why Join?)
  • Login
  • US Flag 
08:04AM EDT


 

Airport Tracker/Info


-or-


 

Live Flight TrackerFlight Track Log ✈ SWA59 ✈ 03-May-2013 ✈ KPHL - KSTL

Flight Track Log - Related Links

Times and Time Zones

All times are in EDT time to prevent confusion due to time zone crossing. See the SWA59 flight status page for this flight to view local times or setup timezone preferences in your user account.

Time Position Orientation Groundspeed Altitude Reporting Facility
EDT Latitude Longitude Course Direction KTS MPH feet Rate Location/Type
05:11PM 39.8833 -75.2167 67° East 145 167 800  Level Philadelphia TRACON
05:12PM 39.9000 -75.1667 67° East 208 239 2,700 2,340 Climbing Philadelphia TRACON
05:14PM 39.9500 -75.1167 37° Northeast 248 285 5,800 2,100 Climbing Philadelphia TRACON
05:16PM 39.9844 -75.3114 283° West 260 299 10,000 1,260 Climbing New York Center
05:17PM 39.9631 -75.4347 257° West 329 379 10,000 660 Level New York Center
05:18PM 39.9397 -75.5442 254° West 346 398 11,400 2,280 Climbing New York Center
05:19PM 39.9175 -75.6833 258° West 363 418 14,700 2,940 Climbing New York Center
05:20PM 39.9142 -75.8075 268° West 375 432 17,200 2,520 Climbing New York Center
05:21PM 39.9117 -75.9644 269° West 394 453 19,700 2,460 Climbing New York Center
05:22PM 39.9133 -76.1133 271° West 404 465 22,300 2,280 Climbing New York Center
05:23PM 39.9092 -76.2483 268° West 404 465 24,300 2,040 Climbing New York Center
05:24PM 39.9122 -76.4031 272° West 415 478 26,400 1,980 Climbing New York Center
05:25PM 39.9006 -76.5592 264° West 427 491 28,200 1,740 Climbing New York Center
05:26PM 39.8925 -76.7208 266° West 440 506 29,900 1,740 Climbing New York Center
05:27PM 39.8942 -76.8942 271° West 440 506 31,800 1,980 Climbing New York Center
05:28PM 39.9139 -77.0314 281° West 440 506 33,900 1,740 Climbing New York Center
05:29PM 39.9228 -77.1808 274° West 434 499 35,400 1,020 Climbing New York Center
05:30PM 39.9350 -77.3339 276° West 429 494 36,000 780 Climbing New York Center
05:32PM 39.9556 -77.6931 274° West 437 503 38,000 600 Climbing Cleveland Center
05:33PM 39.9592 -77.8447 272° West 431 496 38,000  Level Cleveland Center
05:34PM 39.9628 -77.9936 272° West 418 481 38,000  Level Cleveland Center
05:35PM 39.9639 -78.1372 271° West 413 475 38,000  Level Cleveland Center
05:36PM 39.9664 -78.2589 272° West 413 475 38,000  Level Cleveland Center
05:37PM 39.9633 -78.4189 269° West 418 481 38,000  Level Cleveland Center
05:38PM 39.9658 -78.5650 271° West 413 475 38,000  Level Cleveland Center
05:39PM 39.9683 -78.7114 271° West 413 475 38,000  Level Cleveland Center
05:40PM 39.9686 -78.8575 270° West 408 470 38,000  Level Cleveland Center
05:41PM 39.9750 -79.0064 273° West 403 464 38,000  Level Cleveland Center
05:42PM 39.9769 -79.1553 271° West 403 464 38,000  Level Cleveland Center
05:43PM 39.9786 -79.3044 271° West 403 464 38,000  Level Cleveland Center
05:44PM 39.9783 -79.4533 270° West 408 470 38,000  Level Cleveland Center
05:45PM 39.9794 -79.5942 271° West 408 470 38,000  Level Cleveland Center
05:46PM 39.9808 -79.7431 271° West 408 470 38,000  Level Cleveland Center
05:47PM 39.9817 -79.8922 270° West 408 470 38,000  Level Cleveland Center
05:48PM 39.9825 -80.0386 270° West 408 470 38,000  Level Cleveland Center
05:49PM 39.9811 -80.1875 269° West 403 464 38,000  Level Cleveland Center
05:50PM 39.9836 -80.3311 271° West 403 464 38,000  Level Cleveland Center
05:51PM 39.9817 -80.4828 269° West 403 464 38,000  Level Cleveland Center
05:52PM 39.9817 -80.6319 270° West 408 470 38,000  Level Cleveland Center
05:54PM 39.9764 -80.9867 269° West 423 487 38,000  Level Indianapolis Center
05:55PM 39.9753 -81.1414 270° West 423 487 38,000  Level Indianapolis Center
05:56PM 39.9733 -81.2967 269° West 424 488 38,000  Level Indianapolis Center
05:57PM 39.9719 -81.4553 269° West 430 495 38,000  Level Indianapolis Center
05:58PM 39.9706 -81.6119 269° West 429 494 38,000  Level Indianapolis Center
06:00PM 39.9678 -81.7722 269° West 430 495 38,000  Level Indianapolis Center
06:01PM 39.9658 -81.9289 269° West 428 493 38,000  Level Indianapolis Center
06:02PM 39.9636 -82.0867 269° West 431 496 38,000  Level Indianapolis Center
06:03PM 39.9606 -82.2433 269° West 431 496 38,000  Level Indianapolis Center
06:04PM 39.9572 -82.4286 269° West 433 498 38,000  Level Indianapolis Center
06:05PM 39.9553 -82.5867 269° West 434 499 38,000  Level Indianapolis Center
06:06PM 39.9511 -82.7439 268° West 432 497 38,000  Level Indianapolis Center
06:07PM 39.9475 -82.9031 268° West 435 501 38,000  Level Indianapolis Center
06:08PM 39.9442 -83.0639 269° West 433 498 38,000  Level Indianapolis Center
06:09PM 39.9400 -83.2206 268° West 433 498 38,000  Level Indianapolis Center
06:10PM 39.9356 -83.3781 268° West 435 501 38,000  Level Indianapolis Center
06:11PM 39.9308 -83.5356 268° West 435 501 38,000  Level Indianapolis Center
06:12PM 39.9250 -83.7111 268° West 434 499 38,000  Level Indianapolis Center
06:13PM 39.9208 -83.8603 268° West 430 495 38,000  Level Indianapolis Center
06:14PM 39.9153 -84.0161 267° West 431 496 38,000  Level Indianapolis Center
06:15PM 39.9106 -84.1803 268° West 431 496 38,000  Level Indianapolis Center
06:16PM 39.9036 -84.3617 267° West 429 494 38,000  Level Indianapolis Center
06:17PM 39.8989 -84.5181 268° West 429 494 38,000  Level Indianapolis Center
06:18PM 39.8919 -84.6756 267° West 432 497 38,000  Level Indianapolis Center
06:19PM 39.8861 -84.8333 267° West 434 499 38,000  Level Indianapolis Center
06:20PM 39.8794 -84.9786 267° West 438 504 38,000  Level Indianapolis Center
06:21PM 39.8714 -85.1675 267° West 437 503 38,000  Level Indianapolis Center
06:22PM 39.8653 -85.3256 267° West 439 505 38,000  Level Indianapolis Center
06:23PM 39.8589 -85.4833 267° West 438 504 38,000  Level Indianapolis Center
06:24PM 39.8514 -85.6411 267° West 439 505 38,000  Level Indianapolis Center
06:25PM 39.8439 -85.7981 266° West 437 503 38,000  Level Indianapolis Center
06:26PM 39.8344 -85.9589 266° West 441 507 38,000  Level Indianapolis Center
06:27PM 39.8261 -86.1494 267° West 440 506 38,000  Level Indianapolis Center
06:28PM 39.8167 -86.3089 266° West 441 507 38,000  Level Indianapolis Center
06:29PM 39.7906 -86.4636 258° West 438 504 38,000  Level Indianapolis Center
06:30PM 39.7517 -86.6253 253° West 434 499 38,000  Level Indianapolis Center
06:32PM 39.7147 -86.7739 252° West 434 499 38,000  Level Indianapolis Center
06:33PM 39.6778 -86.9222 252° West 435 501 38,000 -480 Level Indianapolis Center
06:34PM 39.6414 -87.0700 252° West 433 498 37,100 -900 Descending Indianapolis Center
06:35PM 39.6036 -87.2181 252° West 435 501 36,200 -1,020 Descending Indianapolis Center
06:36PM 39.5581 -87.3986 252° West 440 506 35,000 -1,020 Descending Indianapolis Center
06:37PM 39.5200 -87.5511 252° West 446 513 34,100 -960 Descending Indianapolis Center
06:38PM 39.4803 -87.7006 251° West 444 511 33,100 -960 Descending Indianapolis Center
06:39PM 39.4422 -87.8522 252° West 444 511 32,200 -960 Descending Indianapolis Center
06:40PM 39.4019 -88.0050 251° West 449 517 31,200 -1,080 Descending Indianapolis Center
06:41PM 39.3569 -88.1839 252° West 440 506 30,000 -1,080 Descending Indianapolis Center
06:42PM 39.3194 -88.3272 251° West 435 501 29,000 -1,020 Descending Indianapolis Center
06:43PM 39.2792 -88.4742 251° West 434 499 28,000 -1,020 Descending Indianapolis Center
06:44PM 39.2406 -88.6183 251° West 427 491 27,000 -1,320 Descending Indianapolis Center
06:45PM 39.2028 -88.7608 251° West 422 486 25,300 -1,980 Descending Indianapolis Center
06:46PM 39.1619 -88.9103 251° West 411 473 22,900 -1,980 Descending Kansas City Center
06:47PM 39.1217 -89.0586 251° West 387 445 21,200 -1,740 Descending Kansas City Center
06:48PM 39.0875 -89.1819 250° West 342 394 19,400 -2,100 Descending Kansas City Center
06:49PM 39.0622 -89.2992 255° West 341 392 16,900 -2,280 Descending Kansas City Center
06:50PM 39.0325 -89.4264 253° West 345 397 14,700 -2,040 Descending Kansas City Center
06:51PM 39.0064 -89.5483 255° West 354 407 12,700 -1,800 Descending Kansas City Center
06:52PM 38.9553 -89.6461 236° Southwest 328 377 11,100 -1,260 Descending Kansas City Center
06:53PM 38.9028 -89.7228 229° Southwest 316 364 10,200 -1,080 Descending Kansas City Center
06:54PM 38.8503 -89.7978 228° Southwest 301 346 8,900 -1,080 Descending Kansas City Center
06:55PM 38.7814 -89.8683 219° Southwest 276 318 8,000 -480 Descending Kansas City Center
06:56PM 38.7400 -89.9094 218° Southwest 223 257 8,000  Level Kansas City Center
06:57PM 38.6978 -89.9200 191° South 178 205 8,000  Level Kansas City Center
06:58PM 38.6578 -89.9322 193° South 159 183 8,000  Level Kansas City Center
06:59PM 38.6172 -89.9439 193° South 152 175 8,000 -480 Level Kansas City Center
07:00PM 38.5758 -89.9544 191° South 151 174 7,100 -960 Descending Kansas City Center
07:02PM 38.5697 -90.0203 263° West 201 231 6,000 -900 Descending Kansas City Center
07:03PM 38.6119 -90.0808 312° West 220 253 5,300 -780 Descending Kansas City Center
07:04PM 38.6447 -90.1497 301° West 226 260 4,400 -1,020 Descending Kansas City Center
07:05PM 38.6753 -90.2117 302° West 219 252 3,300 -1,080 Descending Kansas City Center
07:06PM 38.7000 -90.2622 302° West 192 221 2,200 -1,020 Descending Kansas City Center
07:07PM 38.7233 -90.3078 303° West 148 170 1,200 -780 Descending Kansas City Center
07:08PM 38.7439 -90.3486 303° West 137 158 600 -600 Descending Kansas City Center